Time;durP1;ratioP1;P1;durP2;ratioP2;P2;SDS_P1;SDS_P2;PMS_P1;PMS_P2;Temp;Humidity;BMP_temperature;BMP_pressure;BME280_temperature;BME280_humidity;BME280_pressure;Samples;Min_cycle;Max_cycle;Signal;HPM_P1;HPM_P2
2022/04/03 16:10:26;;;;;;;3.70;0.70;;;14.50;29.20;17.10;93883.00;;;;10554596;27;45193;-62
2022/04/03 16:15:29;;;;;;;0.70;0.70;;;14.50;29.30;17.30;93888.00;;;;10513101;27;46136;-62
2022/04/03 16:20:29;;;;;;;0.90;0.70;;;14.70;28.90;17.50;93880.00;;;;10511581;28;45183;-62
2022/04/03 16:25:30;;;;;;;1.40;0.80;;;14.90;28.60;17.60;93892.00;;;;10494272;28;46818;-62
2022/04/03 16:30:31;;;;;;;0.77;0.70;;;15.00;28.50;17.70;93887.00;;;;10510637;28;47430;-62
2022/04/03 16:35:34;;;;;;;1.95;0.70;;;15.10;28.40;17.70;93902.00;;;;10512053;28;46489;-62
2022/04/03 16:40:34;;;;;;;0.88;0.70;;;15.20;28.30;17.80;93891.00;;;;10510825;28;47251;-62
2022/04/03 16:45:36;;;;;;;1.02;0.70;;;15.30;28.10;17.90;93891.00;;;;10511792;28;45215;-63
2022/04/03 16:50:37;;;;;;;1.80;0.93;;;15.30;28.10;18.00;93900.00;;;;10511827;28;46106;-63
2022/04/03 16:55:37;;;;;;;1.70;0.80;;;15.40;28.10;18.00;93900.00;;;;10506051;28;45277;-62
2022/04/03 17:00:40;;;;;;;1.25;0.90;;;15.50;28.10;18.10;93905.00;;;;10506727;27;45601;-63
2022/04/03 17:05:40;;;;;;;1.08;0.82;;;15.50;28.10;18.20;93896.00;;;;10511176;28;45240;-63
2022/04/03 17:10:44;;;;;;;1.00;0.80;;;15.60;28.10;18.20;93914.00;;;;10510337;28;45264;-63
2022/04/03 17:15:45;;;;;;;1.38;0.88;;;15.60;28.00;18.30;93912.00;;;;10509399;28;46435;-63
2022/04/03 17:20:46;;;;;;;1.60;0.75;;;15.70;28.00;18.30;93919.00;;;;10486521;28;47520;-63
2022/04/03 17:25:49;;;;;;;0.90;0.80;;;15.70;28.00;18.30;93922.00;;;;10482794;28;45388;-63
2022/04/03 17:30:50;;;;;;;1.02;0.80;;;15.70;27.90;18.40;93929.00;;;;10480158;28;45510;-64
2022/04/03 17:35:51;;;;;;;1.23;0.88;;;15.70;27.80;18.40;93934.00;;;;10482055;28;45414;-62
2022/04/03 17:40:52;;;;;;;1.83;0.80;;;15.80;27.90;18.40;93931.00;;;;10481159;28;48101;-63
2022/04/03 17:45:54;;;;;;;1.70;0.82;;;15.80;27.80;18.50;93937.00;;;;10481066;28;46074;-62
2022/04/03 17:51:00;;;;;;;1.00;0.70;;;15.80;27.90;18.50;93945.00;;;;10480707;28;45508;-63
2022/04/03 17:56:03;;;;;;;1.98;0.90;;;15.90;27.80;18.60;93945.00;;;;10472936;28;45248;-62
2022/04/03 18:01:04;;;;;;;1.20;0.82;;;15.90;27.80;18.60;93951.00;;;;10439829;28;45376;-63
2022/04/03 18:06:05;;;;;;;0.73;0.68;;;15.90;27.70;18.60;93958.00;;;;10477992;28;46555;-63
2022/04/03 18:11:12;;;;;;;1.13;0.88;;;15.90;27.70;18.60;93962.00;;;;10479945;28;45510;-63
2022/04/03 18:16:15;;;;;;;1.70;0.75;;;16.00;27.70;18.70;93963.00;;;;10479060;28;45342;-63
2022/04/03 18:21:17;;;;;;;0.73;0.70;;;16.00;27.70;18.70;93962.00;;;;10479943;28;46303;-62
2022/04/03 18:26:19;;;;;;;2.60;0.60;;;16.00;27.70;18.70;93965.00;;;;10478899;28;45575;-63
2022/04/03 18:31:20;;;;;;;1.45;0.70;;;16.00;27.60;18.70;93958.00;;;;10479497;28;46216;-63
2022/04/03 18:36:21;;;;;;;1.10;0.70;;;16.00;27.70;18.80;93974.00;;;;10462394;28;47259;-63
2022/04/03 18:41:22;;;;;;;1.90;0.73;;;16.00;27.60;18.80;93973.00;;;;10479616;28;45181;-63
2022/04/03 18:46:22;;;;;;;0.68;0.65;;;16.00;27.60;18.80;93985.00;;;;10461207;28;46939;-63
2022/04/03 18:51:23;;;;;;;0.95;0.68;;;16.10;27.60;18.80;93987.00;;;;10478955;28;45647;-63
2022/04/03 18:56:24;;;;;;;0.77;0.60;;;16.10;27.60;18.80;93983.00;;;;10478214;28;46604;-63
2022/04/03 19:01:24;;;;;;;0.57;0.52;;;16.10;27.60;18.80;93994.00;;;;10478630;28;46522;-63
2022/04/03 19:06:25;;;;;;;0.60;0.60;;;16.10;27.60;18.80;93993.00;;;;10478430;28;45445;-63
2022/04/03 19:11:27;;;;;;;1.23;0.80;;;16.10;27.50;18.90;93990.00;;;;10478531;28;46521;-63
2022/04/03 19:16:28;;;;;;;0.85;0.55;;;16.10;27.50;18.90;94005.00;;;;10477940;28;46709;-63
2022/04/03 19:21:29;;;;;;;1.35;0.80;;;16.10;27.50;18.90;94011.00;;;;10478099;28;45425;-64
2022/04/03 19:26:29;;;;;;;0.63;0.60;;;16.10;27.50;18.90;94010.00;;;;10459804;28;47963;-62
2022/04/03 19:31:30;;;;;;;0.80;0.63;;;16.20;27.50;18.90;94006.00;;;;10478457;28;45199;-63
2022/04/03 19:36:31;;;;;;;2.00;0.82;;;16.20;27.50;18.90;94017.00;;;;10477998;28;46932;-63
2022/04/03 19:41:32;;;;;;;1.30;0.68;;;16.20;27.40;19.00;94019.00;;;;10476726;28;46178;-63
2022/04/03 19:46:33;;;;;;;1.58;0.80;;;16.20;27.40;19.00;94023.00;;;;10477079;28;46317;-62
2022/04/03 19:51:34;;;;;;;0.80;0.70;;;16.20;27.40;19.00;94015.00;;;;10477282;28;46295;-63
2022/04/03 19:56:34;;;;;;;0.68;0.68;;;16.20;27.40;19.00;94020.00;;;;10478356;28;46337;-63
2022/04/03 20:01:36;;;;;;;1.15;0.75;;;16.20;27.40;19.00;94013.00;;;;10476636;28;46317;-63
2022/04/03 20:06:38;;;;;;;1.45;0.80;;;16.20;27.30;19.00;94021.00;;;;10459724;28;47946;-63
2022/04/03 20:11:40;;;;;;;0.85;0.70;;;16.20;27.30;19.00;93999.00;;;;10476660;28;45591;-63
2022/04/03 20:16:44;;;;;;;3.95;1.00;;;16.20;27.30;19.00;94028.00;;;;10476649;28;45465;-64
2022/04/03 20:21:46;;;;;;;1.50;0.70;;;16.20;27.30;19.00;94030.00;;;;10476366;28;45593;-63
2022/04/03 20:26:47;;;;;;;1.00;0.70;;;16.20;27.30;19.00;94033.00;;;;10475956;28;47146;-64
2022/04/03 20:31:48;;;;;;;1.23;0.73;;;16.20;27.30;18.90;94034.00;;;;10476073;28;46392;-62
2022/04/03 20:36:48;;;;;;;0.80;0.70;;;16.20;27.30;18.90;94044.00;;;;10459101;28;47181;-63
2022/04/03 20:41:49;;;;;;;1.13;0.73;;;16.10;27.30;18.90;94042.00;;;;10477084;28;46449;-63
2022/04/03 20:46:51;;;;;;;1.58;0.70;;;16.10;27.30;18.90;94039.00;;;;10475676;28;46330;-63
2022/04/03 20:51:53;;;;;;;0.90;0.70;;;16.10;27.30;18.90;94015.00;;;;10473007;28;45474;-62
2022/04/03 20:56:53;;;;;;;1.27;0.90;;;16.10;27.40;18.90;94035.00;;;;10461414;28;47219;-63
2022/04/03 21:01:55;;;;;;;0.70;0.70;;;16.00;27.30;18.90;94026.00;;;;10483446;28;46663;-62
2022/04/03 21:06:55;;;;;;;1.83;0.80;;;16.00;27.30;18.90;94024.00;;;;10482430;28;45178;-63
2022/04/03 21:11:57;;;;;;;0.70;0.57;;;16.00;27.30;18.90;94034.00;;;;10482606;28;45267;-63
2022/04/03 21:17:00;;;;;;;0.90;0.70;;;16.00;27.20;18.80;94049.00;;;;10482374;28;45275;-62
2022/04/03 21:22:00;;;;;;;0.85;0.60;;;16.00;27.20;18.80;94058.00;;;;10465272;28;47203;-63
2022/04/03 21:27:01;;;;;;;0.95;0.63;;;16.00;27.10;18.80;94048.00;;;;10482190;28;46652;-64
2022/04/03 21:32:04;;;;;;;1.70;0.70;;;16.00;27.20;18.80;94044.00;;;;10481671;28;47866;-62
2022/04/03 21:37:05;;;;;;;1.17;0.80;;;16.00;27.10;18.80;94038.00;;;;10481357;28;45198;-63
2022/04/03 21:42:06;;;;;;;1.08;0.68;;;16.00;27.10;18.80;94045.00;;;;10463955;28;47915;-64
2022/04/03 21:47:07;;;;;;;1.08;0.60;;;16.00;27.10;18.80;94030.00;;;;10480725;28;45486;-63
2022/04/03 21:52:08;;;;;;;1.65;0.80;;;16.00;27.10;18.80;94039.00;;;;10480898;28;45422;-64
2022/04/03 21:57:09;;;;;;;1.38;0.63;;;16.00;27.10;18.80;94035.00;;;;10481840;28;45342;-63
2022/04/03 22:02:10;;;;;;;1.33;0.70;;;16.00;27.10;18.80;94032.00;;;;10463420;28;47100;-62
2022/04/03 22:07:10;;;;;;;1.25;0.73;;;16.00;27.10;18.80;94025.00;;;;10478963;28;46896;-64
2022/04/03 22:12:11;;;;;;;0.73;0.60;;;15.90;27.00;18.80;94033.00;;;;10480088;28;45398;-64
2022/04/03 22:17:11;;;;;;;1.00;0.70;;;15.90;27.00;18.70;94030.00;;;;10480206;28;45572;-63
2022/04/03 22:22:12;;;;;;;1.08;0.60;;;16.00;26.90;18.70;94032.00;;;;10480228;28;46626;-63
2022/04/03 22:27:13;;;;;;;0.82;0.50;;;15.90;27.00;18.70;94044.00;;;;10479908;28;45313;-63
2022/04/03 22:32:13;;;;;;;0.88;0.55;;;15.90;27.00;18.70;94040.00;;;;10462888;28;47778;-64
2022/04/03 22:37:15;;;;;;;0.52;0.40;;;15.90;26.90;18.70;94040.00;;;;10462784;28;47138;-63
2022/04/03 22:42:16;;;;;;;0.93;0.50;;;15.90;26.90;18.70;94043.00;;;;10462274;28;47008;-62
2022/04/03 22:47:16;;;;;;;0.60;0.60;;;15.90;26.90;18.70;94048.00;;;;10478542;28;48199;-63
2022/04/03 22:52:17;;;;;;;1.20;0.73;;;15.90;26.80;18.70;94045.00;;;;10478974;28;45637;-63
2022/04/03 22:57:18;;;;;;;0.70;0.55;;;15.90;26.90;18.70;94047.00;;;;10478880;28;45300;-63
2022/04/03 23:02:18;;;;;;;0.85;0.50;;;15.90;26.90;18.70;94053.00;;;;10480133;28;46050;-63
2022/04/03 23:07:19;;;;;;;1.10;0.50;;;15.90;26.90;18.70;94047.00;;;;10479228;28;45445;-63
2022/04/03 23:12:20;;;;;;;1.70;0.60;;;15.90;26.80;18.70;94048.00;;;;10477840;28;45235;-62
2022/04/03 23:17:20;;;;;;;0.52;0.50;;;15.90;26.80;18.70;94057.00;;;;10478957;28;45108;-63
2022/04/03 23:22:21;;;;;;;1.98;0.70;;;15.90;26.80;18.70;94060.00;;;;10477728;28;47522;-63
2022/04/03 23:27:22;;;;;;;1.25;0.50;;;15.90;26.80;18.70;94057.00;;;;10460998;28;47410;-63
2022/04/03 23:32:23;;;;;;;1.33;0.50;;;15.90;26.70;18.70;94049.00;;;;10479635;28;45373;-63
2022/04/03 23:37:25;;;;;;;1.17;0.60;;;15.90;26.70;18.70;94045.00;;;;10477206;28;45353;-63
2022/04/03 23:42:26;;;;;;;0.80;0.60;;;15.90;26.70;18.70;94027.00;;;;10476688;28;46430;-63
2022/04/03 23:47:26;;;;;;;0.52;0.50;;;15.90;26.70;18.70;94027.00;;;;10476523;28;46330;-63
2022/04/03 23:52:27;;;;;;;1.33;0.63;;;15.90;26.60;18.70;94027.00;;;;10478172;28;45305;-62
2022/04/03 23:57:27;;;;;;;1.85;0.60;;;15.90;26.60;18.70;94019.00;;;;10476516;28;46710;-63
